sensor_id;sensor_type;location;lat;lon;timestamp;temperature;humidity
24384;DHT22;12504;52.870;8.798;2022-11-15T00:01:41;7.10;99.90
24384;DHT22;12504;52.870;8.798;2022-11-15T00:04:26;7.10;99.90
24384;DHT22;12504;52.870;8.798;2022-11-15T00:07:10;7.10;99.90
24384;DHT22;12504;52.870;8.798;2022-11-15T00:09:54;7.10;99.90
24384;DHT22;12504;52.870;8.798;2022-11-15T00:12:39;7.00;99.90
24384;DHT22;12504;52.870;8.798;2022-11-15T00:15:23;6.90;99.90
24384;DHT22;12504;52.870;8.798;2022-11-15T00:18:12;6.80;99.90
24384;DHT22;12504;52.870;8.798;2022-11-15T00:21:02;6.70;99.90
24384;DHT22;12504;52.870;8.798;2022-11-15T00:23:47;6.60;99.90
24384;DHT22;12504;52.870;8.798;2022-11-15T00:26:32;6.50;99.90
24384;DHT22;12504;52.870;8.798;2022-11-15T00:29:16;6.40;99.90
24384;DHT22;12504;52.870;8.798;2022-11-15T00:32:00;6.30;99.90
24384;DHT22;12504;52.870;8.798;2022-11-15T00:34:44;6.30;99.90
24384;DHT22;12504;52.870;8.798;2022-11-15T00:37:28;6.20;99.90
24384;DHT22;12504;52.870;8.798;2022-11-15T00:40:13;6.10;99.90
24384;DHT22;12504;52.870;8.798;2022-11-15T00:42:57;6.00;99.90
24384;DHT22;12504;52.870;8.798;2022-11-15T00:45:41;6.00;99.90
24384;DHT22;12504;52.870;8.798;2022-11-15T00:48:25;5.90;99.90
24384;DHT22;12504;52.870;8.798;2022-11-15T00:51:09;5.80;99.90
24384;DHT22;12504;52.870;8.798;2022-11-15T00:53:53;5.70;99.90
24384;DHT22;12504;52.870;8.798;2022-11-15T00:56:38;5.50;99.90
24384;DHT22;12504;52.870;8.798;2022-11-15T00:59:22;5.50;99.90
24384;DHT22;12504;52.870;8.798;2022-11-15T01:02:06;5.50;99.90
24384;DHT22;12504;52.870;8.798;2022-11-15T01:04:50;5.50;99.90
24384;DHT22;12504;52.870;8.798;2022-11-15T01:07:35;5.60;99.90
24384;DHT22;12504;52.870;8.798;2022-11-15T01:10:20;5.60;99.90
24384;DHT22;12504;52.870;8.798;2022-11-15T01:13:04;5.60;99.90
24384;DHT22;12504;52.870;8.798;2022-11-15T01:15:48;5.50;99.90
24384;DHT22;12504;52.870;8.798;2022-11-15T01:18:32;5.50;99.90
24384;DHT22;12504;52.870;8.798;2022-11-15T01:21:18;5.60;99.90
24384;DHT22;12504;52.870;8.798;2022-11-15T01:24:02;5.70;99.90
24384;DHT22;12504;52.870;8.798;2022-11-15T01:26:46;5.90;99.90
24384;DHT22;12504;52.870;8.798;2022-11-15T01:29:31;6.00;99.90
24384;DHT22;12504;52.870;8.798;2022-11-15T01:32:15;6.20;99.90
24384;DHT22;12504;52.870;8.798;2022-11-15T01:35:00;6.50;99.90
24384;DHT22;12504;52.870;8.798;2022-11-15T01:37:44;6.60;99.90
24384;DHT22;12504;52.870;8.798;2022-11-15T01:40:28;6.70;99.90
24384;DHT22;12504;52.870;8.798;2022-11-15T01:43:22;6.80;99.90
24384;DHT22;12504;52.870;8.798;2022-11-15T01:49:18;6.90;99.90
24384;DHT22;12504;52.870;8.798;2022-11-15T01:52:03;6.90;99.90
24384;DHT22;12504;52.870;8.798;2022-11-15T01:54:49;6.90;99.90
24384;DHT22;12504;52.870;8.798;2022-11-15T01:57:34;6.90;99.90
24384;DHT22;12504;52.870;8.798;2022-11-15T02:00:19;6.90;99.90
24384;DHT22;12504;52.870;8.798;2022-11-15T02:03:03;6.90;99.90
24384;DHT22;12504;52.870;8.798;2022-11-15T02:05:48;7.00;99.90
24384;DHT22;12504;52.870;8.798;2022-11-15T02:08:32;7.10;99.90
24384;DHT22;12504;52.870;8.798;2022-11-15T02:11:18;7.20;99.90
24384;DHT22;12504;52.870;8.798;2022-11-15T02:14:03;7.40;99.90
24384;DHT22;12504;52.870;8.798;2022-11-15T02:17:02;7.50;99.90
24384;DHT22;12504;52.870;8.798;2022-11-15T02:25:39;7.80;99.90
24384;DHT22;12504;52.870;8.798;2022-11-15T02:34:15;7.90;99.90
24384;DHT22;12504;52.870;8.798;2022-11-15T02:40:07;8.00;99.90
24384;DHT22;12504;52.870;8.798;2022-11-15T02:42:55;8.10;99.90
24384;DHT22;12504;52.870;8.798;2022-11-15T02:46:02;8.10;99.90
24384;DHT22;12504;52.870;8.798;2022-11-15T02:48:47;8.20;99.90
24384;DHT22;12504;52.870;8.798;2022-11-15T02:51:32;8.20;99.90
24384;DHT22;12504;52.870;8.798;2022-11-15T02:54:20;8.30;99.90
24384;DHT22;12504;52.870;8.798;2022-11-15T02:57:16;8.30;99.90
24384;DHT22;12504;52.870;8.798;2022-11-15T03:00:04;8.40;99.90
24384;DHT22;12504;52.870;8.798;2022-11-15T03:11:18;8.50;99.90
24384;DHT22;12504;52.870;8.798;2022-11-15T03:14:19;8.60;99.90
24384;DHT22;12504;52.870;8.798;2022-11-15T03:19:53;8.70;99.90
24384;DHT22;12504;52.870;8.798;2022-11-15T03:22:39;8.70;99.90
24384;DHT22;12504;52.870;8.798;2022-11-15T03:25:24;8.70;99.90
24384;DHT22;12504;52.870;8.798;2022-11-15T03:28:11;8.70;99.90
24384;DHT22;12504;52.870;8.798;2022-11-15T03:30:57;8.70;99.90
24384;DHT22;12504;52.870;8.798;2022-11-15T03:33:42;8.80;99.90
24384;DHT22;12504;52.870;8.798;2022-11-15T03:36:27;8.80;99.90
24384;DHT22;12504;52.870;8.798;2022-11-15T03:39:13;8.80;99.90
24384;DHT22;12504;52.870;8.798;2022-11-15T03:42:07;8.80;99.90
24384;DHT22;12504;52.870;8.798;2022-11-15T03:44:58;8.90;99.90
24384;DHT22;12504;52.870;8.798;2022-11-15T03:47:49;8.90;99.90
24384;DHT22;12504;52.870;8.798;2022-11-15T03:50:35;8.90;99.90
24384;DHT22;12504;52.870;8.798;2022-11-15T03:53:19;8.90;99.90
24384;DHT22;12504;52.870;8.798;2022-11-15T03:56:04;9.00;99.90
24384;DHT22;12504;52.870;8.798;2022-11-15T03:58:48;9.00;99.90
24384;DHT22;12504;52.870;8.798;2022-11-15T04:01:32;9.00;99.90
24384;DHT22;12504;52.870;8.798;2022-11-15T04:04:16;9.10;99.90
24384;DHT22;12504;52.870;8.798;2022-11-15T04:07:01;9.10;99.90
24384;DHT22;12504;52.870;8.798;2022-11-15T04:09:45;9.10;99.90
24384;DHT22;12504;52.870;8.798;2022-11-15T04:12:47;9.10;99.90
24384;DHT22;12504;52.870;8.798;2022-11-15T04:15:32;9.20;99.90
24384;DHT22;12504;52.870;8.798;2022-11-15T04:18:16;9.20;99.90
24384;DHT22;12504;52.870;8.798;2022-11-15T04:21:00;9.30;99.90
24384;DHT22;12504;52.870;8.798;2022-11-15T04:24:04;9.20;99.90
24384;DHT22;12504;52.870;8.798;2022-11-15T04:26:48;9.30;99.90
24384;DHT22;12504;52.870;8.798;2022-11-15T04:29:34;9.30;99.90
24384;DHT22;12504;52.870;8.798;2022-11-15T04:32:19;9.30;99.90
24384;DHT22;12504;52.870;8.798;2022-11-15T04:35:03;9.30;99.90
24384;DHT22;12504;52.870;8.798;2022-11-15T04:37:47;9.30;99.90
24384;DHT22;12504;52.870;8.798;2022-11-15T04:40:31;9.10;99.90
24384;DHT22;12504;52.870;8.798;2022-11-15T04:43:16;9.10;99.90
24384;DHT22;12504;52.870;8.798;2022-11-15T04:46:00;9.00;99.90
24384;DHT22;12504;52.870;8.798;2022-11-15T04:48:44;8.90;99.90
24384;DHT22;12504;52.870;8.798;2022-11-15T04:51:28;9.00;99.90
24384;DHT22;12504;52.870;8.798;2022-11-15T04:54:13;9.00;99.90
24384;DHT22;12504;52.870;8.798;2022-11-15T04:56:57;9.00;99.90
24384;DHT22;12504;52.870;8.798;2022-11-15T04:59:41;9.00;99.90
24384;DHT22;12504;52.870;8.798;2022-11-15T05:02:26;9.00;99.90
24384;DHT22;12504;52.870;8.798;2022-11-15T05:05:30;9.00;99.90
24384;DHT22;12504;52.870;8.798;2022-11-15T05:08:14;9.10;99.90
24384;DHT22;12504;52.870;8.798;2022-11-15T05:10:59;9.10;99.90
24384;DHT22;12504;52.870;8.798;2022-11-15T05:13:43;9.10;99.90
24384;DHT22;12504;52.870;8.798;2022-11-15T05:16:27;9.00;99.90
24384;DHT22;12504;52.870;8.798;2022-11-15T05:19:11;9.10;99.90
24384;DHT22;12504;52.870;8.798;2022-11-15T05:21:56;9.20;99.90
24384;DHT22;12504;52.870;8.798;2022-11-15T05:24:40;9.40;99.90
24384;DHT22;12504;52.870;8.798;2022-11-15T05:27:24;9.50;99.90
24384;DHT22;12504;52.870;8.798;2022-11-15T05:30:09;9.60;99.90
24384;DHT22;12504;52.870;8.798;2022-11-15T05:32:53;9.70;99.90
24384;DHT22;12504;52.870;8.798;2022-11-15T05:35:38;9.80;99.90
24384;DHT22;12504;52.870;8.798;2022-11-15T05:38:23;9.90;99.90
24384;DHT22;12504;52.870;8.798;2022-11-15T05:41:07;9.90;99.90
24384;DHT22;12504;52.870;8.798;2022-11-15T05:43:52;9.90;99.90
24384;DHT22;12504;52.870;8.798;2022-11-15T05:46:37;9.90;99.90
24384;DHT22;12504;52.870;8.798;2022-11-15T05:49:24;9.90;99.90
24384;DHT22;12504;52.870;8.798;2022-11-15T05:52:09;10.00;99.90
24384;DHT22;12504;52.870;8.798;2022-11-15T05:54:54;9.90;99.90
24384;DHT22;12504;52.870;8.798;2022-11-15T05:57:40;10.00;99.90
24384;DHT22;12504;52.870;8.798;2022-11-15T06:00:24;10.00;99.90
24384;DHT22;12504;52.870;8.798;2022-11-15T06:03:08;10.00;99.90
24384;DHT22;12504;52.870;8.798;2022-11-15T06:05:53;10.00;99.90
24384;DHT22;12504;52.870;8.798;2022-11-15T06:08:37;10.00;99.90
24384;DHT22;12504;52.870;8.798;2022-11-15T06:11:21;10.00;99.90
24384;DHT22;12504;52.870;8.798;2022-11-15T06:14:05;10.00;99.90
24384;DHT22;12504;52.870;8.798;2022-11-15T06:16:50;10.10;99.90
24384;DHT22;12504;52.870;8.798;2022-11-15T06:19:34;10.10;99.90
24384;DHT22;12504;52.870;8.798;2022-11-15T06:22:18;10.10;99.90
24384;DHT22;12504;52.870;8.798;2022-11-15T06:25:03;10.10;99.90
24384;DHT22;12504;52.870;8.798;2022-11-15T06:27:51;10.00;99.90
24384;DHT22;12504;52.870;8.798;2022-11-15T06:30:35;10.10;99.90
24384;DHT22;12504;52.870;8.798;2022-11-15T06:33:19;10.00;99.90
24384;DHT22;12504;52.870;8.798;2022-11-15T06:36:04;9.80;99.90
24384;DHT22;12504;52.870;8.798;2022-11-15T06:38:49;9.70;99.90
24384;DHT22;12504;52.870;8.798;2022-11-15T06:41:34;9.60;99.90
24384;DHT22;12504;52.870;8.798;2022-11-15T06:44:19;9.60;99.90
24384;DHT22;12504;52.870;8.798;2022-11-15T06:47:03;9.60;99.90
24384;DHT22;12504;52.870;8.798;2022-11-15T06:49:47;9.70;99.90
24384;DHT22;12504;52.870;8.798;2022-11-15T06:52:32;9.80;99.90
24384;DHT22;12504;52.870;8.798;2022-11-15T06:55:16;9.90;99.90
24384;DHT22;12504;52.870;8.798;2022-11-15T06:58:00;10.10;99.90
24384;DHT22;12504;52.870;8.798;2022-11-15T07:00:45;10.20;99.90
24384;DHT22;12504;52.870;8.798;2022-11-15T07:03:29;10.30;99.90
24384;DHT22;12504;52.870;8.798;2022-11-15T07:06:13;10.40;99.90
24384;DHT22;12504;52.870;8.798;2022-11-15T07:08:58;10.50;99.90
24384;DHT22;12504;52.870;8.798;2022-11-15T07:11:42;10.50;99.90
24384;DHT22;12504;52.870;8.798;2022-11-15T07:14:26;10.50;99.90
24384;DHT22;12504;52.870;8.798;2022-11-15T07:17:10;10.60;99.90
24384;DHT22;12504;52.870;8.798;2022-11-15T07:19:54;10.50;99.90
24384;DHT22;12504;52.870;8.798;2022-11-15T07:22:39;10.50;99.90
24384;DHT22;12504;52.870;8.798;2022-11-15T07:25:24;10.50;99.90
24384;DHT22;12504;52.870;8.798;2022-11-15T07:28:08;10.60;99.90
24384;DHT22;12504;52.870;8.798;2022-11-15T07:30:52;10.60;99.90
24384;DHT22;12504;52.870;8.798;2022-11-15T07:33:36;10.60;99.90
24384;DHT22;12504;52.870;8.798;2022-11-15T07:36:21;10.70;99.90
24384;DHT22;12504;52.870;8.798;2022-11-15T07:39:05;10.80;99.90
24384;DHT22;12504;52.870;8.798;2022-11-15T07:41:49;10.80;99.90
24384;DHT22;12504;52.870;8.798;2022-11-15T07:44:54;10.90;99.90
24384;DHT22;12504;52.870;8.798;2022-11-15T07:47:38;11.00;99.90
24384;DHT22;12504;52.870;8.798;2022-11-15T07:50:23;11.10;99.90
24384;DHT22;12504;52.870;8.798;2022-11-15T07:53:08;11.10;99.90
24384;DHT22;12504;52.870;8.798;2022-11-15T07:55:52;11.10;99.90
24384;DHT22;12504;52.870;8.798;2022-11-15T07:58:37;11.10;99.90
24384;DHT22;12504;52.870;8.798;2022-11-15T08:01:21;11.10;99.90
24384;DHT22;12504;52.870;8.798;2022-11-15T08:04:05;11.10;99.90
24384;DHT22;12504;52.870;8.798;2022-11-15T08:06:50;11.10;99.90
24384;DHT22;12504;52.870;8.798;2022-11-15T08:09:34;11.00;99.90
24384;DHT22;12504;52.870;8.798;2022-11-15T08:12:18;11.10;99.90
24384;DHT22;12504;52.870;8.798;2022-11-15T08:15:03;11.20;99.90
24384;DHT22;12504;52.870;8.798;2022-11-15T08:17:47;11.00;99.90
24384;DHT22;12504;52.870;8.798;2022-11-15T08:20:32;11.00;99.90
24384;DHT22;12504;52.870;8.798;2022-11-15T08:23:16;10.90;99.90
24384;DHT22;12504;52.870;8.798;2022-11-15T08:26:01;10.90;99.90
24384;DHT22;12504;52.870;8.798;2022-11-15T08:28:45;10.90;99.90
24384;DHT22;12504;52.870;8.798;2022-11-15T08:31:30;11.00;99.90
24384;DHT22;12504;52.870;8.798;2022-11-15T08:34:14;11.10;99.90
24384;DHT22;12504;52.870;8.798;2022-11-15T08:36:58;11.10;99.90
24384;DHT22;12504;52.870;8.798;2022-11-15T08:39:42;11.10;99.90
24384;DHT22;12504;52.870;8.798;2022-11-15T08:42:27;11.10;99.90
24384;DHT22;12504;52.870;8.798;2022-11-15T08:45:12;11.20;99.90
24384;DHT22;12504;52.870;8.798;2022-11-15T08:47:56;11.20;99.90
24384;DHT22;12504;52.870;8.798;2022-11-15T08:50:41;11.20;99.90
24384;DHT22;12504;52.870;8.798;2022-11-15T08:53:27;11.20;99.90
24384;DHT22;12504;52.870;8.798;2022-11-15T08:56:12;11.30;99.90
24384;DHT22;12504;52.870;8.798;2022-11-15T08:58:57;11.30;99.90
24384;DHT22;12504;52.870;8.798;2022-11-15T09:01:41;11.40;99.90
24384;DHT22;12504;52.870;8.798;2022-11-15T09:04:25;11.40;99.90
24384;DHT22;12504;52.870;8.798;2022-11-15T09:07:10;11.40;99.90
24384;DHT22;12504;52.870;8.798;2022-11-15T09:09:54;11.40;99.90
24384;DHT22;12504;52.870;8.798;2022-11-15T09:12:38;11.50;99.90
24384;DHT22;12504;52.870;8.798;2022-11-15T09:15:22;11.50;99.90
24384;DHT22;12504;52.870;8.798;2022-11-15T09:18:07;11.50;99.90
24384;DHT22;12504;52.870;8.798;2022-11-15T09:20:51;11.70;99.90
24384;DHT22;12504;52.870;8.798;2022-11-15T09:23:39;11.70;99.90
24384;DHT22;12504;52.870;8.798;2022-11-15T09:26:23;11.70;99.90
24384;DHT22;12504;52.870;8.798;2022-11-15T09:29:07;11.80;99.90
24384;DHT22;12504;52.870;8.798;2022-11-15T09:31:52;11.90;99.90
24384;DHT22;12504;52.870;8.798;2022-11-15T09:34:36;12.00;99.90
24384;DHT22;12504;52.870;8.798;2022-11-15T09:37:21;12.10;99.90
24384;DHT22;12504;52.870;8.798;2022-11-15T09:40:05;12.30;99.90
24384;DHT22;12504;52.870;8.798;2022-11-15T09:46:11;12.60;99.90
24384;DHT22;12504;52.870;8.798;2022-11-15T09:49:13;12.60;99.90
24384;DHT22;12504;52.870;8.798;2022-11-15T09:52:02;12.70;99.90
24384;DHT22;12504;52.870;8.798;2022-11-15T09:54:33;12.80;99.90
24384;DHT22;12504;52.870;8.798;2022-11-15T09:57:18;12.90;99.90
24384;DHT22;12504;52.870;8.798;2022-11-15T09:59:55;13.00;99.90
24384;DHT22;12504;52.870;8.798;2022-11-15T10:02:30;13.00;99.90
24384;DHT22;12504;52.870;8.798;2022-11-15T10:04:58;13.00;99.90
24384;DHT22;12504;52.870;8.798;2022-11-15T10:07:31;12.90;99.90
24384;DHT22;12504;52.870;8.798;2022-11-15T10:10:10;12.90;99.90
24384;DHT22;12504;52.870;8.798;2022-11-15T10:12:38;12.90;99.90
24384;DHT22;12504;52.870;8.798;2022-11-15T10:15:14;12.90;99.90
24384;DHT22;12504;52.870;8.798;2022-11-15T10:17:45;13.00;99.90
24384;DHT22;12504;52.870;8.798;2022-11-15T10:20:26;12.90;99.90
24384;DHT22;12504;52.870;8.798;2022-11-15T10:22:53;12.90;99.90
24384;DHT22;12504;52.870;8.798;2022-11-15T10:25:21;12.90;99.90
24384;DHT22;12504;52.870;8.798;2022-11-15T10:28:30;12.80;99.90
24384;DHT22;12504;52.870;8.798;2022-11-15T10:30:38;12.90;99.90
24384;DHT22;12504;52.870;8.798;2022-11-15T10:35:48;13.10;99.90
24384;DHT22;12504;52.870;8.798;2022-11-15T10:38:14;13.20;99.90
24384;DHT22;12504;52.870;8.798;2022-11-15T10:40:40;13.30;99.90
24384;DHT22;12504;52.870;8.798;2022-11-15T10:43:12;13.40;99.90
24384;DHT22;12504;52.870;8.798;2022-11-15T10:45:39;13.40;99.90
24384;DHT22;12504;52.870;8.798;2022-11-15T10:48:26;13.50;99.90
24384;DHT22;12504;52.870;8.798;2022-11-15T10:50:52;13.50;99.90
24384;DHT22;12504;52.870;8.798;2022-11-15T10:53:28;13.40;99.90
24384;DHT22;12504;52.870;8.798;2022-11-15T10:55:57;13.50;99.90
24384;DHT22;12504;52.870;8.798;2022-11-15T11:00:52;13.60;99.90
24384;DHT22;12504;52.870;8.798;2022-11-15T11:03:34;13.60;99.90
24384;DHT22;12504;52.870;8.798;2022-11-15T11:06:05;13.60;99.90
24384;DHT22;12504;52.870;8.798;2022-11-15T11:08:31;13.70;99.90
24384;DHT22;12504;52.870;8.798;2022-11-15T11:10:58;13.80;99.90
24384;DHT22;12504;52.870;8.798;2022-11-15T11:13:26;14.00;99.90
24384;DHT22;12504;52.870;8.798;2022-11-15T11:15:54;14.50;99.90
24384;DHT22;12504;52.870;8.798;2022-11-15T11:20:51;16.30;99.90
24384;DHT22;12504;52.870;8.798;2022-11-15T12:15:04;16.40;54.60
24384;DHT22;12504;52.870;8.798;2022-11-15T12:17:36;16.60;42.50
24384;DHT22;12504;52.870;8.798;2022-11-15T12:20:05;16.80;32.70
24384;DHT22;12504;52.870;8.798;2022-11-15T12:25:08;16.40;9.80
24384;DHT22;12504;52.870;8.798;2022-11-15T12:27:46;16.20;11.80
24384;DHT22;12504;52.870;8.798;2022-11-15T12:30:18;16.10;15.40
24384;DHT22;12504;52.870;8.798;2022-11-15T12:32:55;16.30;14.90
24384;DHT22;12504;52.870;8.798;2022-11-15T12:35:35;16.20;1.00
24384;DHT22;12504;52.870;8.798;2022-11-15T12:38:03;16.50;1.00
24384;DHT22;12504;52.870;8.798;2022-11-15T12:40:36;16.50;1.00
24384;DHT22;12504;52.870;8.798;2022-11-15T12:45:41;16.50;1.00
24384;DHT22;12504;52.870;8.798;2022-11-15T12:58:50;16.00;1.00
24384;DHT22;12504;52.870;8.798;2022-11-15T13:06:43;16.10;1.00
24384;DHT22;12504;52.870;8.798;2022-11-15T13:11:53;16.60;1.00
24384;DHT22;12504;52.870;8.798;2022-11-15T13:15:08;16.60;1.00
24384;DHT22;12504;52.870;8.798;2022-11-15T13:19:47;16.50;1.00
24384;DHT22;12504;52.870;8.798;2022-11-15T13:22:14;16.60;1.00
24384;DHT22;12504;52.870;8.798;2022-11-15T13:24:59;16.70;1.00
24384;DHT22;12504;52.870;8.798;2022-11-15T13:27:26;16.30;1.00
24384;DHT22;12504;52.870;8.798;2022-11-15T13:29:52;16.10;1.00
24384;DHT22;12504;52.870;8.798;2022-11-15T13:32:18;16.20;1.00
24384;DHT22;12504;52.870;8.798;2022-11-15T13:34:44;16.30;1.00
24384;DHT22;12504;52.870;8.798;2022-11-15T13:37:26;16.20;1.00
24384;DHT22;12504;52.870;8.798;2022-11-15T13:39:53;16.20;1.00
24384;DHT22;12504;52.870;8.798;2022-11-15T13:42:19;16.10;1.00
24384;DHT22;12504;52.870;8.798;2022-11-15T13:44:58;16.00;1.00
24384;DHT22;12504;52.870;8.798;2022-11-15T13:47:25;16.00;1.00
24384;DHT22;12504;52.870;8.798;2022-11-15T13:49:52;16.00;1.00
24384;DHT22;12504;52.870;8.798;2022-11-15T13:52:18;15.90;1.00
24384;DHT22;12504;52.870;8.798;2022-11-15T13:54:55;16.10;1.00
24384;DHT22;12504;52.870;8.798;2022-11-15T13:57:26;16.00;1.00
24384;DHT22;12504;52.870;8.798;2022-11-15T13:59:54;16.00;1.00
24384;DHT22;12504;52.870;8.798;2022-11-15T14:02:21;16.00;1.00
24384;DHT22;12504;52.870;8.798;2022-11-15T14:05:00;15.90;1.00
24384;DHT22;12504;52.870;8.798;2022-11-15T14:07:27;15.90;1.00
24384;DHT22;12504;52.870;8.798;2022-11-15T14:09:54;15.70;1.00
24384;DHT22;12504;52.870;8.798;2022-11-15T14:12:24;15.60;1.00
24384;DHT22;12504;52.870;8.798;2022-11-15T14:14:50;15.60;1.00
24384;DHT22;12504;52.870;8.798;2022-11-15T14:17:18;15.30;1.00
24384;DHT22;12504;52.870;8.798;2022-11-15T14:22:15;15.10;11.50
24384;DHT22;12504;52.870;8.798;2022-11-15T14:24:41;14.80;8.90
24384;DHT22;12504;52.870;8.798;2022-11-15T14:32:14;13.90;32.70
24384;DHT22;12504;52.870;8.798;2022-11-15T14:34:41;13.60;59.40
24384;DHT22;12504;52.870;8.798;2022-11-15T15:13:41;12.50;99.90
24384;DHT22;12504;52.870;8.798;2022-11-15T15:16:07;12.30;99.90
24384;DHT22;12504;52.870;8.798;2022-11-15T15:18:33;12.20;99.90
24384;DHT22;12504;52.870;8.798;2022-11-15T15:20:58;12.10;99.90
24384;DHT22;12504;52.870;8.798;2022-11-15T15:23:32;11.90;99.90
24384;DHT22;12504;52.870;8.798;2022-11-15T15:25:58;11.90;99.90
24384;DHT22;12504;52.870;8.798;2022-11-15T15:28:24;11.80;99.90
24384;DHT22;12504;52.870;8.798;2022-11-15T15:30:50;11.80;99.90
24384;DHT22;12504;52.870;8.798;2022-11-15T15:33:16;11.70;99.90
24384;DHT22;12504;52.870;8.798;2022-11-15T15:35:41;11.80;99.90
24384;DHT22;12504;52.870;8.798;2022-11-15T15:38:09;11.90;99.90
24384;DHT22;12504;52.870;8.798;2022-11-15T15:40:36;11.90;99.90
24384;DHT22;12504;52.870;8.798;2022-11-15T15:43:01;11.80;99.90
24384;DHT22;12504;52.870;8.798;2022-11-15T15:45:27;11.80;99.90
24384;DHT22;12504;52.870;8.798;2022-11-15T15:47:53;11.70;99.90
24384;DHT22;12504;52.870;8.798;2022-11-15T15:50:29;11.70;99.90
24384;DHT22;12504;52.870;8.798;2022-11-15T15:52:56;11.60;99.90
24384;DHT22;12504;52.870;8.798;2022-11-15T15:55:22;11.50;99.90
24384;DHT22;12504;52.870;8.798;2022-11-15T15:57:48;11.50;99.90
24384;DHT22;12504;52.870;8.798;2022-11-15T16:00:13;11.60;99.90
24384;DHT22;12504;52.870;8.798;2022-11-15T16:02:40;11.60;99.90
24384;DHT22;12504;52.870;8.798;2022-11-15T16:05:09;11.70;99.90
24384;DHT22;12504;52.870;8.798;2022-11-15T16:07:35;11.80;99.90
24384;DHT22;12504;52.870;8.798;2022-11-15T16:10:00;11.80;99.90
24384;DHT22;12504;52.870;8.798;2022-11-15T16:12:30;11.80;99.90
24384;DHT22;12504;52.870;8.798;2022-11-15T16:14:56;11.90;99.90
24384;DHT22;12504;52.870;8.798;2022-11-15T16:17:23;11.90;99.90
24384;DHT22;12504;52.870;8.798;2022-11-15T16:19:49;11.90;99.90
24384;DHT22;12504;52.870;8.798;2022-11-15T16:22:15;12.00;99.90
24384;DHT22;12504;52.870;8.798;2022-11-15T16:24:40;11.90;99.90
24384;DHT22;12504;52.870;8.798;2022-11-15T16:27:11;11.80;99.90
24384;DHT22;12504;52.870;8.798;2022-11-15T16:29:37;11.80;99.90
24384;DHT22;12504;52.870;8.798;2022-11-15T16:32:03;11.80;99.90
24384;DHT22;12504;52.870;8.798;2022-11-15T16:34:29;11.70;99.90
24384;DHT22;12504;52.870;8.798;2022-11-15T16:36:54;11.70;99.90
24384;DHT22;12504;52.870;8.798;2022-11-15T16:39:20;11.70;99.90
24384;DHT22;12504;52.870;8.798;2022-11-15T16:41:47;11.60;99.90
24384;DHT22;12504;52.870;8.798;2022-11-15T16:44:13;11.70;99.90
24384;DHT22;12504;52.870;8.798;2022-11-15T16:46:40;11.60;99.90
24384;DHT22;12504;52.870;8.798;2022-11-15T16:49:10;11.60;99.90
24384;DHT22;12504;52.870;8.798;2022-11-15T16:51:37;11.60;99.90
24384;DHT22;12504;52.870;8.798;2022-11-15T16:54:03;11.60;99.90
24384;DHT22;12504;52.870;8.798;2022-11-15T16:56:29;11.60;99.90
24384;DHT22;12504;52.870;8.798;2022-11-15T16:58:56;11.60;99.90
24384;DHT22;12504;52.870;8.798;2022-11-15T17:01:24;11.60;99.90
24384;DHT22;12504;52.870;8.798;2022-11-15T17:03:50;11.50;99.90
24384;DHT22;12504;52.870;8.798;2022-11-15T17:06:16;11.60;99.90
24384;DHT22;12504;52.870;8.798;2022-11-15T17:08:43;11.60;99.90
24384;DHT22;12504;52.870;8.798;2022-11-15T17:11:10;11.60;99.90
24384;DHT22;12504;52.870;8.798;2022-11-15T17:13:37;11.60;99.90
24384;DHT22;12504;52.870;8.798;2022-11-15T17:16:11;11.60;99.90
24384;DHT22;12504;52.870;8.798;2022-11-15T17:18:38;11.60;99.90
24384;DHT22;12504;52.870;8.798;2022-11-15T17:21:08;11.60;99.90
24384;DHT22;12504;52.870;8.798;2022-11-15T17:23:34;11.60;99.90
24384;DHT22;12504;52.870;8.798;2022-11-15T17:26:02;11.60;99.90
24384;DHT22;12504;52.870;8.798;2022-11-15T17:28:33;11.60;99.90
24384;DHT22;12504;52.870;8.798;2022-11-15T17:30:59;11.70;99.90
24384;DHT22;12504;52.870;8.798;2022-11-15T17:33:25;11.60;99.90
24384;DHT22;12504;52.870;8.798;2022-11-15T17:35:57;11.70;99.90
24384;DHT22;12504;52.870;8.798;2022-11-15T17:38:23;11.70;99.90
24384;DHT22;12504;52.870;8.798;2022-11-15T17:40:58;11.70;99.90
24384;DHT22;12504;52.870;8.798;2022-11-15T17:43:24;11.70;99.90
24384;DHT22;12504;52.870;8.798;2022-11-15T17:45:49;11.60;99.90
24384;DHT22;12504;52.870;8.798;2022-11-15T17:48:15;11.70;99.90
24384;DHT22;12504;52.870;8.798;2022-11-15T17:50:41;11.70;99.90
24384;DHT22;12504;52.870;8.798;2022-11-15T17:53:06;11.70;99.90
24384;DHT22;12504;52.870;8.798;2022-11-15T17:55:34;11.70;99.90
24384;DHT22;12504;52.870;8.798;2022-11-15T17:57:59;11.70;99.90
24384;DHT22;12504;52.870;8.798;2022-11-15T18:00:25;11.70;99.90
24384;DHT22;12504;52.870;8.798;2022-11-15T18:02:50;11.70;99.90
24384;DHT22;12504;52.870;8.798;2022-11-15T18:05:16;11.70;99.90
24384;DHT22;12504;52.870;8.798;2022-11-15T18:07:42;11.70;99.90
24384;DHT22;12504;52.870;8.798;2022-11-15T18:10:07;11.70;99.90
24384;DHT22;12504;52.870;8.798;2022-11-15T18:12:33;11.70;99.90
24384;DHT22;12504;52.870;8.798;2022-11-15T18:14:59;11.70;99.90
24384;DHT22;12504;52.870;8.798;2022-11-15T18:17:25;11.60;99.90
24384;DHT22;12504;52.870;8.798;2022-11-15T18:19:51;11.60;99.90
24384;DHT22;12504;52.870;8.798;2022-11-15T18:22:16;11.60;99.90
24384;DHT22;12504;52.870;8.798;2022-11-15T18:24:42;11.60;99.90
24384;DHT22;12504;52.870;8.798;2022-11-15T18:27:09;11.50;99.90
24384;DHT22;12504;52.870;8.798;2022-11-15T18:29:34;11.50;99.90
24384;DHT22;12504;52.870;8.798;2022-11-15T18:32:03;11.50;99.90
24384;DHT22;12504;52.870;8.798;2022-11-15T18:34:32;11.50;99.90
24384;DHT22;12504;52.870;8.798;2022-11-15T18:36:59;11.40;99.90
24384;DHT22;12504;52.870;8.798;2022-11-15T18:39:25;11.50;99.90
24384;DHT22;12504;52.870;8.798;2022-11-15T18:41:50;11.50;99.90
24384;DHT22;12504;52.870;8.798;2022-11-15T18:44:16;11.40;99.90
24384;DHT22;12504;52.870;8.798;2022-11-15T18:46:42;11.40;99.90
24384;DHT22;12504;52.870;8.798;2022-11-15T18:49:09;11.40;99.90
24384;DHT22;12504;52.870;8.798;2022-11-15T18:51:36;11.30;99.90
24384;DHT22;12504;52.870;8.798;2022-11-15T18:54:06;11.30;99.90
24384;DHT22;12504;52.870;8.798;2022-11-15T18:56:32;11.30;99.90
24384;DHT22;12504;52.870;8.798;2022-11-15T18:58:58;11.30;99.90
24384;DHT22;12504;52.870;8.798;2022-11-15T19:01:25;11.20;99.90
24384;DHT22;12504;52.870;8.798;2022-11-15T19:03:52;11.20;99.90
24384;DHT22;12504;52.870;8.798;2022-11-15T19:06:19;11.20;99.90
24384;DHT22;12504;52.870;8.798;2022-11-15T19:08:46;11.20;99.90
24384;DHT22;12504;52.870;8.798;2022-11-15T19:13:37;11.30;99.90
24384;DHT22;12504;52.870;8.798;2022-11-15T19:16:04;11.20;99.90
24384;DHT22;12504;52.870;8.798;2022-11-15T19:18:30;11.20;99.90
24384;DHT22;12504;52.870;8.798;2022-11-15T19:20:56;11.20;99.90
24384;DHT22;12504;52.870;8.798;2022-11-15T19:23:25;11.20;99.90
24384;DHT22;12504;52.870;8.798;2022-11-15T19:25:58;11.20;99.90
24384;DHT22;12504;52.870;8.798;2022-11-15T19:28:25;11.20;99.90